Wiener Neustadt West Airport

LOXN · Baja Austria, Austria

METAR pasados LOXN · Wiener Neustadt West Airport

A continuación puedes ver los METAR de los últimos días. Selecciona un año para ver los METAR más antiguos, desde el año 2007 en adelante.

2 de diciembre de 2022

Hora Código Tiempo Temp. Visibilidad Cielo nuboso Viento METAR/SPECI
23:50
M
2 °C 10 km+ 1.200 ft 130° 130° 10 kt METAR LOWW 022250Z 13010KT 9999 FEW005 SCT008 BKN012 02/01 Q1022 BECMG 1200 BCFG
23:20
I
2 °C 8 km 500 ft 140° 140° 11 kt METAR LOWW 022220Z 14011KT 8000 FEW002 BKN005 BKN007 02/01 Q1022 BECMG 1200 BCFG
22:50
L
2 °C 3,8 km 200 ft 140° 140° 10 kt METAR LOWW 022150Z 14010KT 3800 BR FEW001 BKN002 02/01 Q1022 BECMG 1200 BCFG
22:20
L
2 °C 2 km 200 ft 140° 140° 9 kt METAR LOWW 022120Z 14009KT 2000 R11/P1500D R16/P1500N -DZ BR FEW001 BKN002 02/01 Q1022 BECMG 1200 BCFG
21:50
L
2 °C 2,2 km 200 ft 130° 130° 10 kt METAR LOWW 022050Z 13010KT 2200 BR FEW000 BKN002 02/01 Q1022 BECMG 1200 BCFG
21:20
L
1 °C 2,4 km 200 ft 130° 130° 10 kt METAR LOWW 022020Z 13010KT 2400 -DZ BR FEW001 BKN002 01/01 Q1022 NOSIG
20:50
L
1 °C 3,2 km 100 ft 140° 140° 8 kt METAR LOWW 021950Z 14008KT 3200 BR BKN001 01/00 Q1022 BECMG 2000 BR
20:20
L
1 °C 4,3 km 200 ft 130° 130° 9 kt METAR LOWW 021920Z 13009KT 4300 BR FEW001 BKN002 01/00 Q1022 NOSIG
19:50
L
1 °C 3,7 km 200 ft 130° 130° 7 kt METAR LOWW 021850Z 13007KT 3700 BR FEW001 BKN002 01/M00 Q1022 NOSIG
19:20
L
1 °C 3,7 km 300 ft 120° 120° 7 kt METAR LOWW 021820Z 12007KT 3700 BR FEW001 SCT002 BKN003 01/M00 Q1022 BECMG BKN002
18:50
L
0 °C 4,9 km 300 ft 120° 120° 7 kt METAR LOWW 021750Z 12007KT 4900 BR FEW002 BKN003 00/M00 Q1022 NOSIG
18:20
L
0 °C 4,6 km 300 ft 120° 120° 8 kt METAR LOWW 021720Z 12008KT 4600 BR FEW002 BKN003 00/M01 Q1022 NOSIG
17:50
L
0 °C 6 km 300 ft 120° 120° 6 kt METAR LOWW 021650Z 12006KT 6000 BKN003 00/M01 Q1022 NOSIG
17:20
L
0 °C 5 km 300 ft 120° 120° 7 kt METAR LOWW 021620Z 12007KT 5000 BR FEW002 BKN003 00/M01 Q1022 NOSIG
16:50
I
0 °C 6 km 500 ft 120° 120° 8 kt METAR LOWW 021550Z 12008KT 6000 -SHSN FEW003 BKN005 00/M01 Q1022 TEMPO BKN004
16:20
I
0 °C 6 km 500 ft 110° 110° 7 kt METAR LOWW 021520Z 11007KT 6000 FEW003 BKN005 00/M01 Q1022 TEMPO SCT005 BKN050
15:50
I
0 °C 4 km 500 ft 110° 110° 5 kt METAR LOWW 021450Z 11005KT 4000 BR FEW003 BKN005 00/M01 Q1022 BECMG 2000 BCFG
15:20
L
0 °C 2,2 km 400 ft 110° 110° 3 kt METAR LOWW 021420Z 11003KT 2200 -SN BR FEW003 BKN004 00/M01 Q1022 RESN BECMG 12008KT 3000 BR BKN009
14:50
L
0 °C 2,1 km 400 ft 100° 100° 4 kt METAR LOWW 021350Z 10004KT 2100 R11/P1500U R16/1500U -SN BR FEW002 BKN004 00/M01 Q1022 RESN BECMG 12008KT BKN007
14:20
L
0 °C 1,5 km 300 ft 100° 100° 3 kt METAR LOWW 021320Z 10003KT 1500 R11/P1500U R16/P1500N -SN BR FEW001 BKN003 00/M01 Q1022 TEMPO 0800 SN BECMG 12008KT
13:50
L
0 °C 1,1 km 300 ft 090° 090° 2 kt METAR LOWW 021250Z 09002KT 1100 R11/P1500N R16/1300N -SN BR FEW001 BKN003 00/M01 Q1022 RESN TEMPO SN BCFG BKN005
13:20
L
0 °C 1,4 km 400 ft 090° 090° 2 kt METAR LOWW 021220Z 09002KT 1400 R11/P1500N R16/P1500N -SN BR FEW002 BKN004 00/M01 Q1022 TEMPO 1700 -SN BR
12:50
L
0 °C 1,6 km 300 ft 060° 060° 3 kt METAR LOWW 021150Z 06003KT 1600 1300E R11/P1500N R16/P1500N -SN FEW002 BKN003 M00/M01 Q1022 TEMPO BKN005
12:20
L
0 °C 1,9 km 400 ft 050° 050° 3 kt METAR LOWW 021120Z 05003KT 1900 R11/P1500D R16/P1500D -SN FEW003 BKN004 M00/M01 Q1022 TEMPO 1200 SN
11:50
I
0 °C 1,8 km 500 ft 050° 050° 3 kt METAR LOWW 021050Z 05003KT 1800 R11/P1500U R16/P1500N -SN FEW003 BKN005 M00/M01 Q1022 TEMPO 1200 SN BKN007
11:20
I
0 °C 2,1 km 900 ft 040° 040° 3 kt METAR LOWW 021020Z 04003KT 2100 -SN SCT005 BKN009 M00/M02 Q1022 TEMPO 1200 SN BKN005
10:50
I
0 °C 3,8 km 1.000 ft 060° 060° 3 kt METAR LOWW 020950Z 06003KT 3800 -SN FEW007 BKN010 M00/M02 Q1022 BECMG BKN008
10:20
M
0 °C 6 km - 050° 050° 4 kt METAR LOWW 020920Z 05004KT 6000 FEW010 SCT036 00/M02 Q1022 BECMG BKN009
09:50
M
0 °C 7 km - 050° 050° 4 kt METAR LOWW 020850Z 05004KT 7000 FEW011 M00/M02 Q1022 NOSIG
09:20
M
0 °C 7 km - 060° 060° 3 kt METAR LOWW 020820Z 06003KT 7000 NSC M00/M02 Q1022 NOSIG
08:50
M
0 °C 5 km - 040° 040° 3 kt METAR LOWW 020750Z 04003KT 5000 BR NSC M00/M02 Q1022 NOSIG
08:20
M
-1 °C 6 km - 360° 360° 2 kt METAR LOWW 020720Z 36002KT 6000 NSC M01/M03 Q1022 NOSIG
07:50
M
-1 °C 5 km - Var Var 1 kt METAR LOWW 020650Z VRB01KT 5000 BR NSC M01/M03 Q1022 NOSIG
07:20
M
-1 °C 6 km - 030° 030° 2 kt METAR LOWW 020620Z 03002KT 6000 NSC M01/M03 Q1022 NOSIG
06:50
V
-1 °C 8 km - 350° 350° 2 kt METAR LOWW 020550Z 35002KT 8000 NSC M01/M03 Q1022 NOSIG
06:20
V
-1 °C 9 km - 330° 330° 2 kt METAR LOWW 020520Z 33002KT 9000 NSC M01/M03 Q1022 NOSIG
05:50
V
-1 °C 8 km - 340° 340° 2 kt METAR LOWW 020450Z 34002KT 8000 NSC M01/M03 Q1022 NOSIG
05:20
V
-1 °C 8 km - 350° 350° 3 kt METAR LOWW 020420Z 35003KT 8000 FEW018 M01/M03 Q1022 NOSIG
04:50
V
-1 °C 8 km - 340° 340° 4 kt METAR LOWW 020350Z 34004KT 8000 FEW018 M01/M03 Q1022 NOSIG
04:20
V
-1 °C 8 km - 320° 320° 3 kt METAR LOWW 020320Z 32003KT 8000 NSC M01/M03 Q1022 NOSIG
03:50
V
-1 °C 8 km - 320° 320° 3 kt METAR LOWW 020250Z 32003KT 8000 NSC M01/M03 Q1022 NOSIG
03:20
V
-1 °C 9 km - 330° 330° 4 kt METAR LOWW 020220Z 33004KT 9000 NSC M01/M03 Q1022 NOSIG
02:50
V
-1 °C 8 km - 330° 330° 4 kt METAR LOWW 020150Z 33004KT 8000 FEW011 M01/M03 Q1022 NOSIG
02:20
V
0 °C 9 km - 330° 330° 4 kt METAR LOWW 020120Z 33004KT 9000 FEW011 M00/M02 Q1023 NOSIG
01:50
V
0 °C 9 km - 340° 340° 4 kt METAR LOWW 020050Z 34004KT 9000 NSC M00/M03 Q1023 NOSIG
01:20
V
0 °C 9 km - 340° 340° 4 kt METAR LOWW 020020Z 34004KT 9000 FEW012 M00/M02 Q1023 NOSIG
00:50
V
0 °C 10 km+ - 340° 340° 5 kt METAR LOWW 012350Z 34005KT 9999 FEW012 M00/M03 Q1023 NOSIG
00:20
V
0 °C 10 km+ - 340° 340° 6 kt METAR LOWW 012320Z 34006KT CAVOK M00/M02 Q1023 NOSIG

1 de diciembre de 2022

Hora Código Tiempo Temp. Visibilidad Cielo nuboso Viento METAR/SPECI
23:50
V
0 °C 10 km+ - 330° 330° 5 kt METAR LOWW 012250Z 33005KT CAVOK M00/M02 Q1023 NOSIG
23:20
V
0 °C 10 km+ - 330° 330° 6 kt METAR LOWW 012220Z 33006KT CAVOK 00/M02 Q1023 NOSIG
22:50
V
0 °C 10 km+ - 330° 330° 6 kt METAR LOWW 012150Z 33006KT CAVOK 00/M02 Q1023 NOSIG
22:20
V
0 °C 10 km+ - 340° 340° 6 kt METAR LOWW 012120Z 34006KT CAVOK 00/M02 Q1023 NOSIG
21:50
V
0 °C 10 km+ - 340° 340° 6 kt METAR LOWW 012050Z 34006KT CAVOK 00/M02 Q1023 NOSIG
21:20
V
0 °C 10 km+ - 340° 340° 6 kt METAR LOWW 012020Z 34006KT CAVOK 00/M02 Q1023 NOSIG
20:50
V
1 °C 10 km+ - 340° 340° 7 kt METAR LOWW 011950Z 34007KT CAVOK 01/M02 Q1023 NOSIG
20:20
V
1 °C 10 km+ - 330° 330° 7 kt METAR LOWW 011920Z 33007KT CAVOK 01/M02 Q1023 NOSIG
19:50
V
1 °C 10 km+ - 330° 330° 7 kt METAR LOWW 011850Z 33007KT CAVOK 01/M02 Q1023 NOSIG
19:20
V
1 °C 10 km+ - 340° 340° 6 kt METAR LOWW 011820Z 34006KT CAVOK 01/M02 Q1023 NOSIG
18:50
V
1 °C 10 km+ - 330° 330° 6 kt METAR LOWW 011750Z 33006KT CAVOK 01/M02 Q1023 NOSIG
18:20
V
1 °C 10 km+ - 340° 340° 5 kt METAR LOWW 011720Z 34005KT CAVOK 01/M01 Q1023 NOSIG
17:50
V
2 °C 10 km+ - 350° 350° 8 kt METAR LOWW 011650Z 35008KT CAVOK 02/M01 Q1023 NOSIG
17:20
V
3 °C 10 km+ - 340° 340° 6 kt METAR LOWW 011620Z 34006KT CAVOK 03/M00 Q1023 NOSIG
16:50
V
3 °C 10 km+ - 340° 340° 5 kt METAR LOWW 011550Z 34005KT CAVOK 03/M00 Q1023 NOSIG
16:20
V
3 °C 10 km+ - 340° 340° 5 kt METAR LOWW 011520Z 34005KT CAVOK 03/M00 Q1023 NOSIG
15:50
V
3 °C 10 km+ - 360° 360° 5 kt METAR LOWW 011450Z 36005KT CAVOK 03/M00 Q1023 NOSIG
15:20
V
3 °C 10 km+ - 350° 350° 5 kt METAR LOWW 011420Z 35005KT CAVOK 03/M00 Q1023 NOSIG
14:50
V
4 °C 10 km+ - 350° 350° 5 kt METAR LOWW 011350Z 35005KT CAVOK 04/M00 Q1023 NOSIG
14:20
V
4 °C 10 km+ - 020° 020° 6 kt METAR LOWW 011320Z 02006KT CAVOK 04/M00 Q1023 NOSIG
13:50
V
3 °C 10 km+ - 360° 360° 6 kt METAR LOWW 011250Z 36006KT CAVOK 03/M00 Q1023 NOSIG
13:20
V
3 °C 10 km+ - 020° 020° 5 kt METAR LOWW 011220Z 02005KT CAVOK 03/M01 Q1023 NOSIG
12:50
V
3 °C 9 km - 020° 020° 5 kt METAR LOWW 011150Z 02005KT 350V050 9000 NSC 03/M01 Q1023 NOSIG
12:20
V
2 °C 9 km - 020° 020° 6 kt METAR LOWW 011120Z 02006KT 9000 NSC 02/M01 Q1023 NOSIG
11:50
V
2 °C 8 km - 010° 010° 5 kt METAR LOWW 011050Z 01005KT 340V040 8000 NSC 02/M01 Q1024 NOSIG
11:20
V
2 °C 8 km - 350° 350° 6 kt METAR LOWW 011020Z 35006KT 320V020 8000 NSC 02/M01 Q1024 NOSIG
10:50
V
2 °C 8 km - 010° 010° 6 kt METAR LOWW 010950Z 01006KT 8000 NSC 02/M02 Q1024 NOSIG
10:20
V
1 °C 8 km - 010° 010° 5 kt METAR LOWW 010920Z 01005KT 8000 NSC 01/M02 Q1024 NOSIG
09:50
V
1 °C 8 km - 360° 360° 4 kt METAR LOWW 010850Z 36004KT 8000 FEW010 01/M02 Q1024 NOSIG
09:20
M
1 °C 7 km - 010° 010° 5 kt METAR LOWW 010820Z 01005KT 7000 NSC 01/M01 Q1024 NOSIG
08:50
M
1 °C 7 km - 010° 010° 5 kt METAR LOWW 010750Z 01005KT 340V040 7000 FEW009 01/M02 Q1024 NOSIG
08:20
M
1 °C 7 km - 360° 360° 4 kt METAR LOWW 010720Z 36004KT 7000 NSC 01/M02 Q1024 NOSIG
07:50
M
1 °C 7 km - 350° 350° 5 kt METAR LOWW 010650Z 35005KT 7000 NSC 01/M02 Q1024 NOSIG
07:20
M
0 °C 7 km - 340° 340° 6 kt METAR LOWW 010620Z 34006KT 7000 NSC 00/M02 Q1024 NOSIG
06:50
M
0 °C 7 km - 330° 330° 4 kt METAR LOWW 010550Z 33004KT 7000 NSC 00/M02 Q1024 NOSIG
06:20
M
0 °C 7 km - 340° 340° 4 kt METAR LOWW 010520Z 34004KT 7000 NSC 00/M02 Q1023 NOSIG
05:50
M
0 °C 7 km - 350° 350° 5 kt METAR LOWW 010450Z 35005KT 7000 NSC 00/M02 Q1023 NOSIG
05:20
M
0 °C 7 km - 350° 350° 5 kt METAR LOWW 010420Z 35005KT 7000 NSC 00/M02 Q1023 NOSIG
04:50
M
0 °C 7 km - 350° 350° 5 kt METAR LOWW 010350Z 35005KT 7000 NSC M00/M02 Q1023 NOSIG
04:20
M
0 °C 7 km - 350° 350° 6 kt METAR LOWW 010320Z 35006KT 7000 NSC 00/M02 Q1023 NOSIG
03:50
V
0 °C 8 km - 350° 350° 5 kt METAR LOWW 010250Z 35005KT 8000 NSC 00/M02 Q1023 NOSIG
03:20
V
1 °C 8 km - 340° 340° 4 kt METAR LOWW 010220Z 34004KT 8000 NSC 01/M02 Q1023 NOSIG
02:50
V
1 °C 8 km - 340° 340° 5 kt METAR LOWW 010150Z 34005KT 8000 NSC 01/M01 Q1023 NOSIG
02:20
V
1 °C 8 km - 350° 350° 5 kt METAR LOWW 010120Z 35005KT 8000 NSC 01/M01 Q1023 NOSIG
01:50
V
1 °C 8 km - 350° 350° 6 kt METAR LOWW 010050Z 35006KT 8000 NSC 01/M01 Q1023 NOSIG
01:20
V
1 °C 8 km - 350° 350° 6 kt METAR LOWW 010020Z 35006KT 8000 FEW050 01/M01 Q1023 NOSIG
00:50
V
2 °C 8 km - 360° 360° 4 kt METAR LOWW 302350Z 36004KT 8000 FEW050 02/M01 Q1023 NOSIG
00:20
V
2 °C 8 km - 350° 350° 5 kt METAR LOWW 302320Z 35005KT 8000 SCT050 02/M01 Q1023 NOSIG

30 de noviembre de 2022

Hora Código Tiempo Temp. Visibilidad Cielo nuboso Viento METAR/SPECI
23:50
V
3 °C 9 km - 360° 360° 4 kt METAR LOWW 302250Z 36004KT 9000 SCT050 03/M00 Q1024 NOSIG
23:20
V
3 °C 9 km - 350° 350° 4 kt METAR LOWW 302220Z 35004KT 9000 FEW050 03/M00 Q1024 NOSIG
22:50
V
3 °C 9 km - 360° 360° 5 kt METAR LOWW 302150Z 36005KT 9000 NSC 03/M00 Q1024 NOSIG
22:20
V
3 °C 10 km+ - 360° 360° 5 kt METAR LOWW 302120Z 36005KT CAVOK 03/00 Q1024 NOSIG
21:50
V
3 °C 10 km+ - 360° 360° 3 kt METAR LOWW 302050Z 36003KT CAVOK 03/00 Q1023 NOSIG
21:20
V
4 °C 10 km+ - 340° 340° 4 kt METAR LOWW 302020Z 34004KT CAVOK 04/01 Q1023 NOSIG
20:50
V
4 °C 10 km+ - 340° 340° 4 kt METAR LOWW 301950Z 34004KT CAVOK 04/01 Q1023 NOSIG
20:20
V
4 °C 10 km+ - 340° 340° 3 kt METAR LOWW 301920Z 34003KT 300V360 CAVOK 04/01 Q1023 NOSIG
19:50
V
4 °C 10 km+ - 360° 360° 2 kt METAR LOWW 301850Z 36002KT CAVOK 04/00 Q1023 NOSIG
19:20
V
4 °C 10 km+ - 350° 350° 2 kt METAR LOWW 301820Z 35002KT 9999 -RA FEW042 04/00 Q1023 NOSIG
18:50
V
4 °C 10 km+ - 360° 360° 2 kt METAR LOWW 301750Z 36002KT 9999 FEW050 04/01 Q1023 NOSIG
18:20
V
4 °C 10 km+ - 360° 360° 3 kt METAR LOWW 301720Z 36003KT 9999 FEW015 04/01 Q1023 NOSIG
17:50
V
4 °C 10 km+ - 350° 350° 5 kt METAR LOWW 301650Z 35005KT CAVOK 04/01 Q1023 NOSIG
17:20
V
4 °C 10 km+ - 300° 300° 3 kt METAR LOWW 301620Z 30003KT 250V330 9999 FEW050 04/01 Q1023 NOSIG
16:50
V
5 °C 10 km+ - 290° 290° 3 kt METAR LOWW 301550Z 29003KT 250V310 CAVOK 05/00 Q1023 NOSIG
16:20
V
4 °C 10 km+ - 290° 290° 3 kt METAR LOWW 301520Z 29003KT 250V330 CAVOK 04/01 Q1023 NOSIG
15:50
V
4 °C 10 km+ - 310° 310° 4 kt METAR LOWW 301450Z 31004KT CAVOK 04/01 Q1023 NOSIG
15:20
V
4 °C 10 km+ - 310° 310° 3 kt METAR LOWW 301420Z 31003KT 280V360 CAVOK 04/01 Q1023 NOSIG
14:50
V
4 °C 10 km+ - 350° 350° 2 kt METAR LOWW 301350Z 35002KT CAVOK 04/01 Q1023 NOSIG
14:20
V
4 °C 10 km+ - 330° 330° 3 kt METAR LOWW 301320Z 33003KT CAVOK 04/00 Q1023 NOSIG
13:50
V
4 °C 10 km+ - Var Var 2 kt METAR LOWW 301250Z VRB02KT 9999 FEW042 04/00 Q1023 NOSIG
13:20
V
4 °C 10 km+ - Var Var 1 kt METAR LOWW 301220Z VRB01KT 9999 FEW050 04/00 Q1023 NOSIG
12:50
V
4 °C 10 km+ - Var Var 2 kt METAR LOWW 301150Z VRB02KT 9999 SCT050 04/01 Q1023 NOSIG
12:20
V
4 °C 10 km+ 5.000 ft 330° 330° 4 kt METAR LOWW 301120Z 33004KT 9999 FEW046 BKN050 04/00 Q1023 NOSIG
11:50
V
3 °C 10 km+ 5.000 ft 020° 020° 3 kt METAR LOWW 301050Z 02003KT 330V050 9999 FEW048 BKN050 03/00 Q1024 NOSIG
11:20
V
3 °C 9 km 5.000 ft 360° 360° 3 kt METAR LOWW 301020Z 36003KT 320V030 9000 FEW044 BKN050 03/01 Q1024 NOSIG
10:50
V
3 °C 8 km - 360° 360° 3 kt METAR LOWW 300950Z 36003KT 8000 FEW046 03/01 Q1024 NOSIG

Nosotros y terceros seguimos tu comportamiento en Internet en nuestro sitio web con cookies. Si continúas, asumimos que estás de acuerdo con nuestra Política de cookies.